Time;durP1;ratioP1;P1;durP2;ratioP2;P2;SDS_P1;SDS_P2;PMS_P1;PMS_P2;Temp;Humidity;BMP_temperature;BMP_pressure;BME280_temperature;BME280_humidity;BME280_pressure;Samples;Min_cycle;Max_cycle;Signal;HPM_P1;HPM_P2
2023/04/26 00:00:10;;;;;;;5.97;2.85;;;;;;;4.20;69.30;101845.84;4949288;28;20497;-79
2023/04/26 00:02:36;;;;;;;6.50;3.00;;;;;;;4.15;69.27;101845.78;4955325;28;20026;-79
2023/04/26 00:05:02;;;;;;;6.18;2.95;;;;;;;4.09;69.56;101841.41;4955987;28;20027;-79
2023/04/26 00:07:29;;;;;;;6.82;2.83;;;;;;;3.99;69.52;101839.47;4947534;28;20023;-78
2023/04/26 00:09:55;;;;;;;4.50;2.80;;;;;;;3.96;69.70;101842.00;4939689;28;20042;-79
2023/04/26 00:12:20;;;;;;;6.88;2.67;;;;;;;3.90;69.63;101844.47;4948585;28;20091;-78
2023/04/26 00:14:46;;;;;;;5.07;2.88;;;;;;;3.86;70.16;101840.09;4961353;28;20097;-78
2023/04/26 00:17:11;;;;;;;4.90;2.50;;;;;;;3.80;70.60;101839.16;4959033;28;20082;-79
2023/04/26 00:19:37;;;;;;;5.65;2.70;;;;;;;3.76;70.32;101845.06;4954066;28;20086;-79
2023/04/26 00:22:04;;;;;;;5.80;2.58;;;;;;;3.70;70.50;101842.41;4959093;28;20035;-79
2023/04/26 00:24:29;;;;;;;6.05;2.72;;;;;;;3.66;70.63;101843.16;4953620;28;20049;-78
2023/04/26 00:26:55;;;;;;;4.82;2.47;;;;;;;3.62;71.01;101849.09;4954715;28;20434;-79
2023/04/26 00:29:21;;;;;;;4.68;2.75;;;;;;;3.60;71.20;101841.34;4959896;28;20039;-78
2023/04/26 00:31:46;;;;;;;4.90;2.70;;;;;;;3.57;70.80;101836.13;4953916;28;20133;-78
2023/04/26 00:34:11;;;;;;;4.72;2.20;;;;;;;3.54;71.36;101836.06;4951141;28;20035;-78
2023/04/26 00:36:37;;;;;;;4.38;2.53;;;;;;;3.52;70.89;101842.91;4952473;28;20035;-79
2023/04/26 00:39:02;;;;;;;5.93;2.60;;;;;;;3.47;71.15;101844.53;4952348;28;20078;-78
2023/04/26 00:41:28;;;;;;;5.60;2.85;;;;;;;3.43;71.08;101847.88;4950151;28;20045;-78
2023/04/26 00:43:53;;;;;;;5.93;2.70;;;;;;;3.40;70.95;101845.22;4956074;28;21442;-78
2023/04/26 00:46:19;;;;;;;4.37;2.47;;;;;;;3.37;71.53;101843.47;4956872;28;20046;-78
2023/04/26 00:48:45;;;;;;;7.30;2.93;;;;;;;3.33;71.98;101846.81;4954788;28;20078;-78
2023/04/26 00:51:11;;;;;;;5.30;2.47;;;;;;;3.28;72.23;101849.28;4955073;28;20035;-78
2023/04/26 00:53:36;;;;;;;4.13;2.60;;;;;;;3.26;71.37;101839.78;4954120;28;20027;-78
2023/04/26 00:56:05;;;;;;;5.43;2.47;;;;;;;3.22;71.80;101843.16;4951928;28;20032;-78
2023/04/26 00:58:31;;;;;;;5.13;2.63;;;;;;;3.17;72.13;101845.59;4953499;28;20058;-78
2023/04/26 01:00:57;;;;;;;5.28;2.70;;;;;;;3.15;72.42;101843.03;4955249;28;20102;-78
2023/04/26 01:03:22;;;;;;;6.47;2.87;;;;;;;3.13;72.49;101847.25;4953546;28;20083;-78
2023/04/26 01:05:47;;;;;;;4.60;2.65;;;;;;;3.10;72.79;101844.63;4959468;28;20086;-79
2023/04/26 01:08:16;;;;;;;6.27;2.90;;;;;;;3.09;72.76;101842.88;4958136;28;20074;-78
2023/04/26 01:10:41;;;;;;;6.37;2.83;;;;;;;3.10;72.67;101836.91;4950348;28;20038;-78
2023/04/26 01:13:07;;;;;;;4.73;2.53;;;;;;;3.09;72.63;101842.88;4953518;28;20027;-78
2023/04/26 01:15:34;;;;;;;5.10;2.93;;;;;;;3.08;72.64;101841.13;4947801;28;20024;-78
2023/04/26 01:18:00;;;;;;;5.57;2.93;;;;;;;3.07;72.60;101835.97;4954497;28;20094;-78
2023/04/26 01:20:25;;;;;;;3.93;2.67;;;;;;;3.04;72.55;101844.50;4953088;28;20035;-78
2023/04/26 01:22:51;;;;;;;5.67;2.93;;;;;;;3.02;72.79;101844.44;4949717;28;20497;-77
2023/04/26 01:25:17;;;;;;;5.43;2.80;;;;;;;3.00;72.66;101845.25;4948564;28;20399;-78
2023/04/26 01:27:43;;;;;;;6.20;3.00;;;;;;;2.98;72.34;101849.50;4950888;28;20054;-78
2023/04/26 01:30:09;;;;;;;7.43;3.10;;;;;;;2.93;72.67;101849.41;4947307;28;20518;-78
2023/04/26 01:32:35;;;;;;;6.07;3.10;;;;;;;2.87;73.43;101847.56;4948444;28;20101;-78
2023/04/26 01:35:00;;;;;;;5.30;2.97;;;;;;;2.85;73.73;101849.25;4949228;28;20459;-78
2023/04/26 01:37:25;;;;;;;4.57;2.90;;;;;;;2.86;73.51;101848.41;4953275;28;20117;-78
2023/04/26 01:39:51;;;;;;;5.90;3.20;;;;;;;2.85;73.59;101851.81;4950640;28;20113;-78
2023/04/26 01:42:16;;;;;;;4.37;2.80;;;;;;;2.83;73.74;101847.44;4947669;28;20387;-78
2023/04/26 01:44:41;;;;;;;6.10;3.40;;;;;;;2.80;73.21;101850.81;4949642;28;20061;-78
2023/04/26 01:47:07;;;;;;;6.50;3.13;;;;;;;2.77;73.21;101852.47;4948991;28;20035;-78
2023/04/26 01:49:32;;;;;;;5.67;2.93;;;;;;;2.74;73.47;101845.53;4952925;28;20043;-78
2023/04/26 01:51:58;;;;;;;5.33;3.00;;;;;;;2.74;73.94;101850.69;4946706;28;20701;-78
2023/04/26 01:54:24;;;;;;;6.10;3.33;;;;;;;2.76;74.92;101849.00;4951411;28;20031;-78
2023/04/26 01:56:49;;;;;;;7.17;3.70;;;;;;;2.78;74.06;101852.50;4945852;28;20183;-78
2023/04/26 01:59:14;;;;;;;7.27;4.30;;;;;;;2.81;74.32;101850.00;4946414;28;20038;-78
2023/04/26 02:01:43;;;;;;;6.30;3.90;;;;;;;2.82;74.26;101853.44;4946925;28;20035;-78
2023/04/26 02:04:08;;;;;;;6.53;3.80;;;;;;;2.83;74.58;101848.34;4949443;28;20110;-78
2023/04/26 02:06:34;;;;;;;5.70;3.70;;;;;;;2.83;74.63;101848.34;4941276;28;20127;-78
2023/04/26 02:08:59;;;;;;;8.07;3.57;;;;;;;2.85;74.71;101856.94;4950276;28;20058;-78
2023/04/26 02:11:25;;;;;;;6.70;3.83;;;;;;;2.85;74.50;101848.34;4948433;28;20035;-78
2023/04/26 02:13:52;;;;;;;7.70;4.43;;;;;;;2.84;74.41;101855.22;4947065;28;20045;-78
2023/04/26 02:16:17;;;;;;;6.97;4.03;;;;;;;2.83;74.64;101847.44;4950599;28;20058;-78
2023/04/26 02:18:43;;;;;;;6.80;3.60;;;;;;;2.83;74.76;101848.34;4950795;28;20027;-78
2023/04/26 02:21:10;;;;;;;7.27;3.63;;;;;;;2.85;74.52;101858.63;4947810;28;20143;-78
2023/04/26 02:23:35;;;;;;;6.73;4.03;;;;;;;2.81;74.93;101852.56;4952068;28;20100;-78
2023/04/26 02:26:00;;;;;;;6.53;3.43;;;;;;;2.80;74.49;101855.13;4949677;28;20158;-78
2023/04/26 02:28:26;;;;;;;5.57;3.33;;;;;;;2.78;74.82;101852.50;4944230;28;20086;-78
2023/04/26 02:30:51;;;;;;;5.50;3.40;;;;;;;2.75;74.89;101847.28;4944736;28;20042;-78
2023/04/26 02:33:16;;;;;;;5.03;3.07;;;;;;;2.73;74.72;101843.81;4947441;28;20054;-78
2023/04/26 02:35:41;;;;;;;6.53;3.40;;;;;;;2.71;74.89;101842.91;4945945;28;20391;-78
2023/04/26 02:38:07;;;;;;;8.53;3.57;;;;;;;2.70;74.71;101846.31;4930277;28;20032;-78
2023/04/26 02:40:32;;;;;;;6.87;3.60;;;;;;;2.69;74.15;101852.28;4949568;28;20394;-78
2023/04/26 02:42:57;;;;;;;5.27;3.20;;;;;;;2.62;74.48;101848.72;4948570;28;20079;-78
2023/04/26 02:45:23;;;;;;;5.07;3.30;;;;;;;2.60;74.16;101841.78;4948950;28;20023;-78
2023/04/26 02:47:48;;;;;;;8.17;3.37;;;;;;;2.53;73.97;101839.09;4947327;28;20157;-78
2023/04/26 02:50:13;;;;;;;7.27;3.17;;;;;;;2.48;74.26;101840.66;4946870;28;20078;-78
2023/04/26 02:52:39;;;;;;;6.10;2.93;;;;;;;2.45;74.44;101835.47;4944978;28;20066;-78
2023/04/26 02:55:05;;;;;;;7.40;3.53;;;;;;;2.41;74.98;101834.53;4948548;28;20175;-78
2023/04/26 02:57:31;;;;;;;5.87;3.17;;;;;;;2.37;75.23;101834.41;4942743;28;20487;-78
2023/04/26 02:59:56;;;;;;;5.27;3.23;;;;;;;2.35;75.58;101833.50;4942495;28;20430;-78
2023/04/26 03:02:22;;;;;;;6.80;3.63;;;;;;;2.35;75.62;101838.66;4944345;28;20059;-78
2023/04/26 03:04:47;;;;;;;5.90;3.37;;;;;;;2.37;74.25;101829.28;4942473;28;20111;-78
2023/04/26 03:07:13;;;;;;;6.00;3.40;;;;;;;2.32;73.94;101830.84;4945122;28;20430;-78
2023/04/26 03:09:38;;;;;;;5.73;3.40;;;;;;;2.26;73.96;101832.44;4945282;28;20028;-78
2023/04/26 03:12:05;;;;;;;5.30;3.13;;;;;;;2.21;73.96;101831.47;4945136;28;20035;-78
2023/04/26 03:14:30;;;;;;;7.33;3.63;;;;;;;2.17;73.94;101836.47;4944874;28;20027;-78
2023/04/26 03:16:56;;;;;;;5.70;3.23;;;;;;;2.11;74.56;101832.94;4945379;28;20078;-78
2023/04/26 03:19:21;;;;;;;5.67;2.93;;;;;;;2.07;74.73;101830.22;4944160;28;20062;-78
2023/04/26 03:21:46;;;;;;;5.17;3.10;;;;;;;2.04;74.71;101827.63;4947892;28;20467;-78
2023/04/26 03:24:11;;;;;;;4.77;2.97;;;;;;;1.96;74.55;101822.28;4944750;28;20079;-78
2023/04/26 03:26:37;;;;;;;5.37;3.10;;;;;;;1.92;74.83;101831.59;4944862;28;20020;-78
2023/04/26 03:29:02;;;;;;;5.90;2.93;;;;;;;1.90;75.41;101833.25;4945031;28;20035;-78
2023/04/26 03:31:27;;;;;;;6.73;3.37;;;;;;;1.87;75.72;101828.06;4941997;28;20053;-78
2023/04/26 03:33:53;;;;;;;6.50;3.33;;;;;;;1.87;75.92;101827.16;4945097;28;20104;-78
2023/04/26 03:36:18;;;;;;;6.07;3.00;;;;;;;1.87;75.62;101824.59;4943502;28;20038;-78
2023/04/26 03:38:43;;;;;;;5.27;2.93;;;;;;;1.87;75.35;101828.06;4941646;28;20040;-78
2023/04/26 03:41:08;;;;;;;7.00;3.83;;;;;;;1.86;75.44;101828.88;4948827;28;20035;-78
2023/04/26 03:43:34;;;;;;;6.03;3.30;;;;;;;1.84;76.33;101827.97;4951186;28;20468;-78
2023/04/26 03:45:59;;;;;;;7.93;3.30;;;;;;;1.83;76.48;101821.09;4943196;28;20038;-78
2023/04/26 03:48:26;;;;;;;5.50;3.30;;;;;;;1.84;76.28;101820.28;4949360;28;20038;-78
2023/04/26 03:50:51;;;;;;;5.97;3.27;;;;;;;1.80;76.02;101821.00;4943998;28;20039;-78
2023/04/26 03:53:17;;;;;;;6.67;3.40;;;;;;;1.75;75.94;101823.47;4950372;28;20085;-78
2023/04/26 03:55:42;;;;;;;5.73;3.33;;;;;;;1.74;76.54;101819.16;4948691;28;20368;-78
2023/04/26 03:58:07;;;;;;;6.87;3.77;;;;;;;1.71;76.15;101820.78;4950841;28;20027;-78
2023/04/26 04:00:36;;;;;;;6.47;3.60;;;;;;;1.69;77.11;101819.88;4948011;28;20027;-78
2023/04/26 04:03:01;;;;;;;5.67;3.50;;;;;;;1.71;76.78;101823.34;4946431;28;20042;-78
2023/04/26 04:05:26;;;;;;;6.87;3.43;;;;;;;1.72;76.19;101828.50;4941987;28;20023;-78
2023/04/26 04:07:52;;;;;;;6.30;4.00;;;;;;;1.70;77.10;101830.16;4947773;28;20162;-78
2023/04/26 04:10:17;;;;;;;6.30;3.17;;;;;;;1.71;75.96;101825.91;4945801;28;20159;-78
2023/04/26 04:12:42;;;;;;;8.70;3.53;;;;;;;1.69;75.67;101823.28;4944412;28;20035;-78
2023/04/26 04:15:08;;;;;;;6.90;3.80;;;;;;;1.68;75.78;101821.53;4947468;28;20487;-78
2023/04/26 04:17:34;;;;;;;7.47;3.73;;;;;;;1.66;75.51;101818.94;4947650;28;20038;-78
2023/04/26 04:20:00;;;;;;;8.30;4.00;;;;;;;1.63;75.79;101823.09;4950362;28;20031;-78
2023/04/26 04:22:26;;;;;;;7.03;3.70;;;;;;;1.60;76.21;101823.91;4951550;28;20031;-78
2023/04/26 04:24:51;;;;;;;6.00;3.30;;;;;;;1.60;76.74;101829.03;4949219;28;20070;-78
2023/04/26 04:27:16;;;;;;;7.63;3.40;;;;;;;1.62;76.19;101826.53;4948558;28;20460;-78
2023/04/26 04:29:42;;;;;;;6.07;3.23;;;;;;;1.64;76.70;101829.97;4942352;28;20085;-78
2023/04/26 04:32:07;;;;;;;7.07;3.07;;;;;;;1.65;76.65;101830.03;4942388;28;20051;-78
2023/04/26 04:34:35;;;;;;;8.07;3.73;;;;;;;1.64;77.44;101833.44;4942614;28;20369;-78
2023/04/26 04:37:01;;;;;;;8.33;4.10;;;;;;;1.66;77.39;101839.47;4945268;28;20483;-78
2023/04/26 04:39:26;;;;;;;5.20;3.40;;;;;;;1.65;77.18;101831.72;4946530;28;20035;-78
2023/04/26 04:41:53;;;;;;;6.77;3.50;;;;;;;1.66;77.19;101842.03;4948213;28;20035;-78
2023/04/26 04:44:18;;;;;;;7.17;3.27;;;;;;;1.70;77.04;101839.56;4951342;28;20204;-78
2023/04/26 04:46:43;;;;;;;6.77;3.80;;;;;;;1.70;76.69;101839.56;4953403;28;20125;-78
2023/04/26 04:49:13;;;;;;;6.67;3.27;;;;;;;1.71;76.73;101838.72;4963043;28;20062;-78
2023/04/26 04:51:39;;;;;;;8.07;3.20;;;;;;;1.76;77.04;101844.84;4950357;28;20031;-78
2023/04/26 04:54:11;;;;;;;7.83;3.70;;;;;;;1.81;77.63;101843.28;4956913;28;20394;-78
2023/04/26 04:56:36;;;;;;;6.63;3.50;;;;;;;1.89;77.38;101836.63;4968575;28;20034;-78
2023/04/26 04:59:03;;;;;;;7.50;4.47;;;;;;;1.97;77.48;101844.53;4952633;28;20031;-78
2023/04/26 05:01:29;;;;;;;8.57;4.50;;;;;;;2.04;77.70;101848.16;4945758;28;20050;-78
2023/04/26 05:03:54;;;;;;;8.80;4.27;;;;;;;2.10;78.11;101848.28;4946249;28;20027;-78
2023/04/26 05:06:20;;;;;;;9.13;4.17;;;;;;;2.16;77.60;101851.03;4952217;28;20039;-78
2023/04/26 05:08:45;;;;;;;7.67;3.93;;;;;;;2.21;77.29;101843.44;4945366;28;20087;-78
2023/04/26 05:11:11;;;;;;;9.03;4.27;;;;;;;2.25;77.19;101850.38;4942012;28;20035;-78
2023/04/26 05:13:36;;;;;;;9.37;4.23;;;;;;;2.31;77.42;101849.66;4941088;28;20035;-78
2023/04/26 05:16:01;;;;;;;7.83;4.27;;;;;;;2.36;77.13;101859.22;4947599;28;20074;-78
2023/04/26 05:18:27;;;;;;;8.53;4.47;;;;;;;2.42;77.20;101853.34;4950003;28;20122;-78
2023/04/26 05:20:52;;;;;;;8.27;4.53;;;;;;;2.47;77.21;101856.91;4944370;28;20043;-78
2023/04/26 05:23:17;;;;;;;7.47;4.27;;;;;;;2.53;77.17;101859.63;4946779;28;20028;-78
2023/04/26 05:25:43;;;;;;;8.30;4.03;;;;;;;2.60;77.14;101860.66;4949313;28;20369;-78
2023/04/26 05:28:11;;;;;;;9.57;4.53;;;;;;;2.65;76.97;101861.59;4948020;28;20106;-77
2023/04/26 05:30:37;;;;;;;8.37;4.43;;;;;;;2.71;76.96;101860.91;4941094;28;20047;-78
2023/04/26 05:33:02;;;;;;;7.83;4.60;;;;;;;2.76;77.19;101864.44;4951259;28;20031;-78
2023/04/26 05:35:27;;;;;;;8.60;4.57;;;;;;;2.82;77.20;101862.00;4949826;28;20053;-78
2023/04/26 05:37:53;;;;;;;8.40;4.63;;;;;;;2.88;77.34;101857.03;4963275;28;20033;-78
2023/04/26 05:40:18;;;;;;;7.90;4.83;;;;;;;2.95;77.43;101854.56;4960791;28;20031;-78
2023/04/26 05:42:43;;;;;;;9.77;4.73;;;;;;;2.98;77.08;101852.06;4963409;28;20058;-78
2023/04/26 05:45:09;;;;;;;11.27;4.97;;;;;;;3.01;77.56;101854.72;4955553;28;20386;-78
2023/04/26 05:47:35;;;;;;;9.40;4.80;;;;;;;3.05;77.43;101859.09;4955057;28;20074;-78
2023/04/26 05:50:00;;;;;;;9.97;5.20;;;;;;;3.09;77.32;101860.88;4951606;28;20486;-78
2023/04/26 05:52:26;;;;;;;10.77;5.03;;;;;;;3.12;77.27;101858.38;4952400;28;20035;-78
2023/04/26 05:54:51;;;;;;;8.97;5.07;;;;;;;3.15;76.92;101871.31;4949927;28;20106;-78
2023/04/26 05:57:17;;;;;;;9.10;4.63;;;;;;;3.14;77.01;101867.00;4952239;28;20116;-78
2023/04/26 05:59:43;;;;;;;9.37;4.83;;;;;;;3.17;76.97;101872.22;4946555;28;20031;-78
2023/04/26 06:02:08;;;;;;;11.93;5.50;;;;;;;3.22;77.19;101868.88;4945385;28;20058;-78
2023/04/26 06:04:34;;;;;;;10.67;5.40;;;;;;;3.24;77.18;101868.06;4950962;28;20035;-77
2023/04/26 06:06:59;;;;;;;9.50;5.43;;;;;;;3.29;77.02;101865.59;4950899;28;20035;-78
2023/04/26 06:09:26;;;;;;;11.13;5.47;;;;;;;3.34;76.76;101867.41;4946381;28;20407;-78
2023/04/26 06:11:51;;;;;;;9.60;5.27;;;;;;;3.43;76.40;101863.31;4948190;28;20093;-78
2023/04/26 06:14:16;;;;;;;10.53;5.47;;;;;;;3.52;76.41;101867.78;4944249;28;20118;-78
2023/04/26 06:16:41;;;;;;;12.03;5.60;;;;;;;3.63;76.98;101869.72;4950104;28;20042;-78
2023/04/26 06:19:07;;;;;;;8.90;5.20;;;;;;;3.77;77.41;101866.53;4947688;28;20164;-78
2023/04/26 06:21:32;;;;;;;9.40;5.50;;;;;;;3.86;77.38;101863.28;4945782;28;20034;-78
2023/04/26 06:23:57;;;;;;;8.67;5.20;;;;;;;3.98;77.27;101863.50;4955999;28;20505;-78
2023/04/26 06:26:22;;;;;;;8.65;5.00;;;;;;;4.08;77.72;101869.69;4951945;28;20035;-78
2023/04/26 06:28:48;;;;;;;11.67;5.50;;;;;;;4.18;77.24;101861.28;4949624;28;20033;-78
2023/04/26 06:31:13;;;;;;;10.05;5.30;;;;;;;4.28;77.74;101864.00;4950227;28;20055;-78
2023/04/26 06:33:38;;;;;;;11.50;5.13;;;;;;;4.34;78.02;101866.69;4950458;28;20115;-78
2023/04/26 06:36:04;;;;;;;9.27;4.82;;;;;;;4.39;77.44;101870.19;4949711;28;20035;-78
2023/04/26 06:38:29;;;;;;;9.60;5.40;;;;;;;4.43;77.24;101877.13;4951518;28;20035;-78
2023/04/26 06:40:55;;;;;;;7.88;4.72;;;;;;;4.49;77.19;101871.22;4952333;28;20439;-78
2023/04/26 06:43:20;;;;;;;8.85;4.90;;;;;;;4.55;76.92;101876.47;4952390;28;20035;-78
2023/04/26 06:45:45;;;;;;;11.00;5.32;;;;;;;4.64;76.29;101892.06;4949480;28;20031;-78
2023/04/26 06:48:11;;;;;;;10.35;5.38;;;;;;;4.72;76.36;101879.31;4952462;28;20073;-78
2023/04/26 06:50:38;;;;;;;9.63;5.20;;;;;;;4.83;76.80;101887.19;4949389;28;20035;-78
2023/04/26 06:53:03;;;;;;;10.25;5.22;;;;;;;4.92;76.37;101886.47;4953699;28;20098;-78
2023/04/26 06:55:29;;;;;;;10.30;5.28;;;;;;;5.03;76.78;101889.22;4953135;28;20046;-78
2023/04/26 06:57:55;;;;;;;11.13;4.65;;;;;;;5.11;76.43;101888.47;4949686;28;20394;-78
2023/04/26 07:00:21;;;;;;;9.43;4.82;;;;;;;5.19;75.93;101888.56;4951615;28;20033;-78
2023/04/26 07:02:46;;;;;;;8.20;4.40;;;;;;;5.28;75.35;101895.56;4946372;28;20039;-77
2023/04/26 07:05:12;;;;;;;10.30;5.10;;;;;;;5.37;76.11;101889.66;4942693;28;20748;-77
2023/04/26 07:07:37;;;;;;;10.82;4.78;;;;;;;5.45;75.60;101886.34;4941483;28;20046;-78
2023/04/26 07:10:03;;;;;;;8.52;4.40;;;;;;;5.52;76.30;101884.69;4943866;28;20035;-78
2023/04/26 07:12:28;;;;;;;7.57;4.40;;;;;;;5.59;74.86;101886.50;4943518;28;20505;-78
2023/04/26 07:14:53;;;;;;;8.75;4.20;;;;;;;5.68;73.85;101890.03;4943339;28;20487;-78
2023/04/26 07:17:20;;;;;;;8.88;4.57;;;;;;;5.75;74.48;101886.69;4941930;28;20090;-78
2023/04/26 07:19:45;;;;;;;8.57;4.20;;;;;;;5.81;75.45;101886.72;4944969;28;20106;-78
2023/04/26 07:22:11;;;;;;;6.93;4.18;;;;;;;5.87;74.43;101891.97;4948278;28;20035;-78
2023/04/26 07:24:36;;;;;;;6.25;4.10;;;;;;;5.90;72.81;101892.00;4941215;28;20043;-77
2023/04/26 07:27:02;;;;;;;9.10;4.35;;;;;;;5.96;73.20;101885.19;4946465;28;20468;-78
2023/04/26 07:29:27;;;;;;;7.05;3.70;;;;;;;6.01;71.75;101883.53;4944114;28;20028;-78
2023/04/26 07:31:53;;;;;;;7.63;3.60;;;;;;;6.06;71.75;101887.03;4941577;28;20059;-78
2023/04/26 07:34:18;;;;;;;9.32;3.63;;;;;;;6.11;70.68;101885.38;4944427;28;20046;-77
2023/04/26 07:36:43;;;;;;;7.32;3.90;;;;;;;6.20;70.42;101889.78;4945427;28;20106;-78
2023/04/26 07:39:09;;;;;;;9.32;3.80;;;;;;;6.28;70.80;101882.09;4940519;28;20035;-77
2023/04/26 07:41:34;;;;;;;7.78;3.55;;;;;;;6.39;69.86;101877.88;4944047;28;20031;-78
2023/04/26 07:44:00;;;;;;;6.50;3.10;;;;;;;6.49;70.61;101882.25;4945475;28;20043;-78
2023/04/26 07:46:25;;;;;;;4.97;2.95;;;;;;;6.57;68.60;101879.75;4943216;28;20031;-78
2023/04/26 07:48:50;;;;;;;7.60;2.92;;;;;;;6.67;66.53;101872.91;4947014;28;20035;-78
2023/04/26 07:51:16;;;;;;;5.30;2.70;;;;;;;6.75;69.13;101879.00;4946958;28;20074;-78
2023/04/26 07:53:41;;;;;;;6.25;2.70;;;;;;;6.83;67.15;101881.63;4946848;28;20399;-78
2023/04/26 07:56:07;;;;;;;5.30;2.42;;;;;;;6.91;66.24;101885.16;4942662;28;20146;-79
2023/04/26 07:58:33;;;;;;;5.75;2.40;;;;;;;6.99;65.51;101882.63;4946604;28;21331;-78
2023/04/26 08:00:59;;;;;;;3.95;1.98;;;;;;;7.07;64.83;101886.09;4944243;28;20105;-77
2023/04/26 08:03:26;;;;;;;4.30;2.15;;;;;;;7.14;64.67;101882.69;4942505;28;20446;-78
2023/04/26 08:05:52;;;;;;;5.50;2.30;;;;;;;7.23;66.59;101887.06;4929808;28;20058;-78
2023/04/26 08:08:18;;;;;;;6.55;2.22;;;;;;;7.33;68.53;101887.97;4942971;28;20388;-78
2023/04/26 08:10:43;;;;;;;4.32;2.20;;;;;;;7.43;67.83;101887.13;4948512;28;20601;-79
2023/04/26 08:13:08;;;;;;;5.22;2.40;;;;;;;7.48;63.56;101881.97;4948735;28;20125;-78
2023/04/26 08:15:33;;;;;;;5.65;2.28;;;;;;;7.55;63.67;101894.09;4949458;28;20047;-78
2023/04/26 08:17:59;;;;;;;4.47;1.90;;;;;;;7.54;60.07;101891.47;4949379;28;20094;-78
2023/04/26 08:20:24;;;;;;;3.17;1.08;;;;;;;7.47;58.09;101900.97;4948404;28;20043;-79
2023/04/26 08:22:54;;;;;;;5.80;1.23;;;;;;;7.42;61.00;101898.34;4945080;28;20046;-78
2023/04/26 08:25:20;;;;;;;3.67;1.45;;;;;;;7.48;61.89;101899.25;4949300;28;20039;-78
2023/04/26 08:27:45;;;;;;;4.32;1.77;;;;;;;7.59;61.51;101890.66;4947462;28;20035;-79
2023/04/26 08:30:11;;;;;;;4.45;1.60;;;;;;;7.75;60.93;101895.91;4948440;28;20031;-78
2023/04/26 08:32:37;;;;;;;3.60;1.50;;;;;;;7.84;59.84;101892.47;4948919;28;20051;-79
2023/04/26 08:35:02;;;;;;;5.47;1.55;;;;;;;7.93;61.90;101889.88;4948205;28;20031;-79
2023/04/26 08:37:28;;;;;;;3.05;1.60;;;;;;;8.04;62.80;101893.34;4947871;28;20058;-78
2023/04/26 08:39:53;;;;;;;4.72;1.85;;;;;;;8.16;60.75;101889.91;4947503;28;20073;-78
2023/04/26 08:42:19;;;;;;;3.33;1.40;;;;;;;8.29;58.60;101896.00;4947848;28;20031;-78
2023/04/26 08:44:45;;;;;;;6.70;1.83;;;;;;;8.35;57.88;101893.41;4948953;28;20122;-79
2023/04/26 08:47:36;;;;;;;4.15;1.85;;;;;;;8.41;57.58;101894.25;4945656;28;20118;-78
2023/04/26 08:50:03;;;;;;;4.38;1.33;;;;;;;8.44;57.04;101887.38;4933403;28;20591;-78
2023/04/26 08:52:30;;;;;;;3.90;1.70;;;;;;;8.45;57.74;101883.03;4948556;28;20058;-78
2023/04/26 08:54:57;;;;;;;5.47;1.88;;;;;;;8.44;57.85;101892.56;4945040;28;20043;-78
2023/04/26 08:57:24;;;;;;;3.72;1.80;;;;;;;8.40;58.51;101884.75;4947174;28;20042;-78
2023/04/26 08:59:52;;;;;;;4.20;1.80;;;;;;;8.33;57.73;101887.34;4945675;28;20032;-78
2023/04/26 09:02:22;;;;;;;2.90;1.50;;;;;;;8.26;56.74;101883.03;4948797;28;20763;-77
2023/04/26 09:04:48;;;;;;;5.25;1.77;;;;;;;8.24;56.04;101884.75;4942429;28;20031;-79
2023/04/26 09:07:38;;;;;;;4.50;1.52;;;;;;;8.28;58.41;101881.28;4943072;28;20031;-79
2023/04/26 09:10:05;;;;;;;4.30;1.27;;;;;;;8.31;56.27;101881.31;4949003;28;20046;-79
2023/04/26 09:12:31;;;;;;;4.28;1.30;;;;;;;8.34;57.30;101880.44;4947751;28;20038;-79
2023/04/26 09:14:56;;;;;;;3.85;1.42;;;;;;;8.33;56.23;101882.16;4950344;28;20035;-78
2023/04/26 09:17:33;;;;;;;4.57;1.60;;;;;;;8.33;57.33;101881.28;4946094;28;20032;-78
2023/04/26 09:20:00;;;;;;;5.97;1.55;;;;;;;8.37;55.10;101883.03;4943540;28;20074;-79
2023/04/26 09:22:32;;;;;;;7.35;1.50;;;;;;;8.41;55.45;101882.16;4945266;28;20031;-78
2023/04/26 09:24:59;;;;;;;5.03;1.40;;;;;;;8.45;54.08;101881.31;4944334;28;20110;-78
2023/04/26 09:27:35;;;;;;;4.47;1.20;;;;;;;8.45;56.13;101877.84;4942993;28;20035;-79
2023/04/26 09:30:10;;;;;;;3.63;1.35;;;;;;;8.48;56.21;101877.88;4944999;28;20057;-79
2023/04/26 09:32:56;;;;;;;3.60;1.40;;;;;;;8.53;56.30;101870.97;4941738;28;20059;-79
2023/04/26 09:35:23;;;;;;;4.18;1.60;;;;;;;8.58;54.97;101869.22;4945276;28;20027;-79
2023/04/26 09:37:55;;;;;;;3.08;1.40;;;;;;;8.63;56.35;101877.88;4943061;28;20035;-79
2023/04/26 09:40:21;;;;;;;4.68;1.80;;;;;;;8.66;54.39;101879.59;4943995;28;20035;-79
2023/04/26 09:43:11;;;;;;;3.17;1.50;;;;;;;8.71;54.28;101879.59;4942248;28;20092;-79
2023/04/26 09:45:49;;;;;;;2.53;1.25;;;;;;;8.73;54.88;101878.72;4945063;28;20077;-79
2023/04/26 09:48:16;;;;;;;3.42;1.30;;;;;;;8.81;52.87;101886.50;4945147;28;20031;-78
2023/04/26 09:50:44;;;;;;;4.10;1.30;;;;;;;8.89;52.45;101889.06;4942514;28;20556;-78
2023/04/26 09:53:09;;;;;;;2.45;1.30;;;;;;;8.93;51.82;101883.03;4943143;28;20039;-82
2023/04/26 09:55:35;;;;;;;3.00;1.40;;;;;;;9.00;53.06;101881.28;4941873;28;20091;-82
2023/04/26 09:58:08;;;;;;;3.92;1.30;;;;;;;9.02;51.90;101882.13;4943403;28;20039;-82
2023/04/26 10:00:35;;;;;;;5.80;1.45;;;;;;;8.96;51.06;101881.28;4944643;28;20054;-78
2023/04/26 10:03:01;;;;;;;3.97;1.45;;;;;;;8.96;50.88;101880.44;4942926;28;20046;-77
2023/04/26 10:05:26;;;;;;;3.65;1.30;;;;;;;8.92;50.69;101865.72;4944699;28;20110;-78
2023/04/26 10:07:51;;;;;;;5.38;1.50;;;;;;;8.99;52.74;101870.00;4942560;28;20458;-77
2023/04/26 10:10:17;;;;;;;2.58;1.20;;;;;;;9.06;50.62;101876.03;4942782;28;20050;-77
2023/04/26 10:12:43;;;;;;;4.43;1.10;;;;;;;9.11;52.10;101875.19;4943874;28;20521;-77
2023/04/26 10:15:10;;;;;;;3.67;1.20;;;;;;;9.14;49.74;101871.72;4943432;28;20142;-78
2023/04/26 10:17:38;;;;;;;3.50;1.30;;;;;;;9.16;50.77;101866.50;4939155;28;20031;-77
2023/04/26 10:20:09;;;;;;;6.03;1.30;;;;;;;9.19;49.77;101867.38;4948738;28;20478;-77
2023/04/26 10:22:44;;;;;;;2.40;1.15;;;;;;;9.25;50.15;101872.53;4943742;28;20042;-77
2023/04/26 10:25:09;;;;;;;2.83;1.10;;;;;;;9.27;48.77;101875.97;4942863;28;20530;-79
2023/04/26 10:27:53;;;;;;;1.92;1.20;;;;;;;9.33;52.25;101882.03;4942504;28;20114;-78
2023/04/26 10:30:20;;;;;;;3.00;1.25;;;;;;;9.32;49.51;101880.31;4939526;28;20094;-78
2023/04/26 10:32:54;;;;;;;2.45;1.00;;;;;;;9.33;51.46;101876.84;4935615;28;20034;-77
2023/04/26 10:35:21;;;;;;;3.97;1.33;;;;;;;9.28;51.18;101876.88;4944032;28;20035;-77
2023/04/26 10:37:58;;;;;;;6.43;1.70;;;;;;;9.25;51.30;101875.13;4939711;28;20024;-78
2023/04/26 10:40:25;;;;;;;4.05;1.42;;;;;;;9.22;49.90;101867.34;4943918;28;20031;-78
2023/04/26 10:42:50;;;;;;;2.00;1.20;;;;;;;9.24;50.82;101867.34;4944020;28;20035;-77
2023/04/26 10:45:26;;;;;;;3.10;1.40;;;;;;;9.38;51.53;101867.31;4943380;28;20083;-78
2023/04/26 10:48:16;;;;;;;4.18;1.20;;;;;;;9.51;52.21;101860.31;4946307;28;20066;-78
2023/04/26 10:51:00;;;;;;;3.75;1.25;;;;;;;9.63;51.39;101861.97;4928350;28;20035;-78
2023/04/26 10:53:52;;;;;;;4.38;1.23;;;;;;;9.69;50.41;101857.59;4940975;28;20529;-78
2023/04/26 10:56:26;;;;;;;;;;;;;;;9.83;53.07;101854.94;4946069;28;20050;-78
2023/04/26 10:59:08;;;;;;;3.35;1.17;;;;;;;10.00;51.34;101846.16;4944840;28;19922;-78
2023/04/26 11:01:35;;;;;;;6.38;1.50;;;;;;;10.08;51.61;101844.34;4939331;28;20100;-78
2023/04/26 11:04:07;;;;;;;4.40;1.40;;;;;;;10.13;49.41;101847.78;4941083;28;20027;-78
2023/04/26 11:06:50;;;;;;;2.85;1.15;;;;;;;10.10;50.08;101855.59;4942155;28;20483;-78
2023/04/26 11:09:41;;;;;;;3.33;1.40;;;;;;;10.07;50.45;101853.06;4943749;28;20367;-78
2023/04/26 11:12:11;;;;;;;2.35;1.20;;;;;;;10.21;50.27;101855.53;4944145;28;20033;-78
2023/04/26 11:14:37;;;;;;;2.80;1.30;;;;;;;10.26;47.51;101853.75;4942475;28;20066;-78
2023/04/26 11:17:07;;;;;;;3.80;1.50;;;;;;;10.36;50.62;101845.88;4937297;28;20179;-77
2023/04/26 11:19:33;;;;;;;3.58;1.30;;;;;;;10.45;45.90;101841.47;4937675;28;20035;-77
2023/04/26 11:22:02;;;;;;;3.97;1.40;;;;;;;10.58;47.63;101836.19;4938929;28;20027;-78
2023/04/26 11:24:35;;;;;;;2.58;1.30;;;;;;;10.67;45.30;101843.88;4937177;28;20035;-78
2023/04/26 11:27:07;;;;;;;2.85;1.23;;;;;;;10.74;46.14;101837.75;4939720;28;20364;-78
2023/04/26 11:29:32;;;;;;;2.35;1.17;;;;;;;10.82;47.45;101836.78;4943037;28;20034;-77